Vision of The Seas — C6SE8 — position and weather

sailwx.info

Track history (hours):
 
Tides and Currents Weather Stations Pressure Air Temp Water Temp Dewpoint Dewpoint Depression Visibility Wind Speed Wind Dir Waves Ship Positions

Vision of The Seas

Operator: Royal Caribbean Cruises Ltd

Last reported at 2019-Feb-23 23:26 UTC. Time now 2019-Feb-23 23:39 UTC.
Position N 29°55' W 089°58'.

Type: Passenger vessel. MMSI: 311321000.

Date/timePositionNaut miles runAvg speedWind from/ knotsBaromVisibWave heightAir tempDewpointWater temp
2019-Feb-23 23:26N 29°55' W 089°58'512.6
2019-Feb-23 23:01N 29°57' W 090°04'0 0.7
2019-Feb-23 22:28N 29°57' W 090°04'0 0.0
2019-Feb-23 21:55N 29°57' W 090°04'0 0.0
2019-Feb-23 21:22N 29°57' W 090°04'0 0.0
2019-Feb-23 20:52N 29°57' W 090°04'0 0.0
2019-Feb-23 20:28N 29°57' W 090°04'0 0.0
2019-Feb-23 19:58N 29°57' W 090°04'0 0.0
2019-Feb-23 19:25N 29°57' W 090°04'0 0.0
2019-Feb-23 18:58N 29°57' W 090°04'0 0.0
2019-Feb-23 18:28N 29°57' W 090°04'0 0.0
2019-Feb-23 17:58N 29°57' W 090°04'0 0.0
2019-Feb-23 17:28N 29°57' W 090°04'0 0.0
2019-Feb-23 16:58N 29°57' W 090°04'0 0.0
2019-Feb-23 16:28N 29°57' W 090°04'0 0.0
2019-Feb-23 15:58N 29°57' W 090°04'0 0.0
2019-Feb-23 15:28N 29°57' W 090°04'0 0.0
2019-Feb-23 14:58N 29°57' W 090°04'0 0.0
2019-Feb-23 14:25N 29°57' W 090°04'0 0.0
2019-Feb-23 13:55N 29°57' W 090°04'0 0.0
2019-Feb-23 13:28N 29°57' W 090°04'0 0.0
2019-Feb-23 12:58N 29°57' W 090°04'0 0.8
2019-Feb-23 12:30N 29°57' W 090°04'5 9.3
2019-Feb-23 12:00N 29°56' W 089°58'5 8.8
2019-Feb-23 11:28N 29°52' W 089°55'4 9.1
2019-Feb-23 10:59N 29°50' W 089°59'611.4
2019-Feb-23 10:29N 29°45' W 090°01'46813.6
2019-Feb-22 00:00N 22°42' W 086°18'19614.0 130 / 181018.110.8 25.023.626.0
2019-Feb-21 10:00N 20°36' W 083°36'12017.1 110 / 151018.110.8 25.020.7
2019-Feb-21 03:00N 19°24' W 081°54'69 4.1 100 / 181018.110.8 25.020.726.0
2019-Feb-20 10:00N 19°12' W 083°06'19419.4 140 / 141017.1 5.4 25.020.7
2019-Feb-20 00:00N 18°54' W 086°30'45 3.0 140 / 191017.110.8 25.022.226.0
2019-Feb-19 09:00N 18°54' W 087°18'6210.4 120 / 201016.110.8 25.020.7
2019-Feb-19 03:00N 19°54' W 087°00'2810.2 120 / 271017.110.8 25.0 27.0
2019-Feb-19 00:14N 20°22' W 087°05'4 9.5
2019-Feb-18 23:47N 20°26' W 087°03'310.2
2019-Feb-18 23:30N 20°28' W 087°02'3 6.2
2019-Feb-18 23:00N 20°29' W 086°59'0 0.2
2019-Feb-18 22:28N 20°29' W 086°59'0 0.0
2019-Feb-18 21:58N 20°29' W 086°59'0 0.0
2019-Feb-18 21:25N 20°29' W 086°59'0 0.0
2019-Feb-18 20:58N 20°29' W 086°59'0 0.0
2019-Feb-18 20:28N 20°29' W 086°59'0 0.0
2019-Feb-18 19:58N 20°29' W 086°59'0 0.0
2019-Feb-18 19:28N 20°29' W 086°59'0 0.0
2019-Feb-18 18:55N 20°29' W 086°59'0 0.0
2019-Feb-18 18:25N 20°29' W 086°59'0 0.0
2019-Feb-18 17:58N 20°29' W 086°59'0 0.0
2019-Feb-18 17:28N 20°29' W 086°59'0 0.0
2019-Feb-18 16:58N 20°29' W 086°59'0 0.0
2019-Feb-18 16:28N 20°29' W 086°59'0 0.0
2019-Feb-18 15:58N 20°29' W 086°59'0 0.0
2019-Feb-18 15:25N 20°29' W 086°59'0 0.0
2019-Feb-18 14:58N 20°29' W 086°59'0 0.0
2019-Feb-18 14:28N 20°29' W 086°59'0 0.0
2019-Feb-18 13:58N 20°29' W 086°59'0 0.0
2019-Feb-18 13:25N 20°29' W 086°59'0 0.0
2019-Feb-18 12:58N 20°29' W 086°59'2 4.7
2019-Feb-18 12:30N 20°31' W 086°59'612.7
2019-Feb-18 12:01N 20°37' W 086°56'19416.1
2019-Feb-18 00:00N 23°48' W 087°30'38316.0 160 / 291013.110.8 24.019.621.0
2019-Feb-17 00:05N 29°46' W 090°01'115.7
2019-Feb-17 00:00N 29°47' W 090°01'713.1
2019-Feb-16 23:30N 29°53' W 089°57'3 5.0
2019-Feb-16 22:59N 29°55' W 089°57'612.6
2019-Feb-16 22:30N 29°57' W 090°03'1 1.9
2019-Feb-16 22:00N 29°57' W 090°04'0 0.0
2019-Feb-16 21:30N 29°57' W 090°04'0 0.0
2019-Feb-16 21:00N 29°57' W 090°04'0 0.0
2019-Feb-16 20:24N 29°57' W 090°04'0 0.0
2019-Feb-16 20:00N 29°57' W 090°04'0 0.0
2019-Feb-16 19:24N 29°57' W 090°04'0 0.0
2019-Feb-16 18:57N 29°57' W 090°04'0 0.0
2019-Feb-16 18:30N 29°57' W 090°04'0 0.0
2019-Feb-16 18:00N 29°57' W 090°04'0 0.0
2019-Feb-16 17:30N 29°57' W 090°04'0 0.0
2019-Feb-16 17:00N 29°57' W 090°04'0 0.0
2019-Feb-16 16:30N 29°57' W 090°04'0 0.0
2019-Feb-16 15:57N 29°57' W 090°04'0 0.0
2019-Feb-16 15:30N 29°57' W 090°04'0 0.0
2019-Feb-16 15:00N 29°57' W 090°04'0 0.0
2019-Feb-16 14:30N 29°57' W 090°04'0 0.0
2019-Feb-16 14:00N 29°57' W 090°04'0 0.0
2019-Feb-16 13:30N 29°57' W 090°04'0 0.0
2019-Feb-16 12:57N 29°57' W 090°04'0 0.0
2019-Feb-16 12:30N 29°57' W 090°04'2 4.1
2019-Feb-16 12:00N 29°57' W 090°01'510.7
2019-Feb-16 11:30N 29°55' W 089°56'3 5.8
2019-Feb-16 11:00N 29°52' W 089°57'5 9.2
2019-Feb-16 10:30N 29°49' W 090°00'510.2
2019-Feb-16 10:00N 29°44' W 089°60'22422.4
2019-Feb-16 00:00N 26°06' W 089°00'20517.1 230 / 131015.110.8 22.015.8
2019-Feb-15 12:00N 25°54' W 085°12'16620.8 150 / 101018.110.8 20.016.9
2019-Feb-15 04:00N 24°18' W 087°42'21511.9 070 / 111020.110.8 22.017.5
2019-Feb-14 10:00N 20°54' W 086°30'6613.3 030 / 181018.110.8 24.019.6
2019-Feb-14 05:00N 19°54' W 087°00'   340 / 171020.110.8 24.022.6
Track history (hours):
 
Tides and Currents Weather Stations Pressure Air Temp Water Temp Dewpoint Dewpoint Depression Visibility Wind Speed Wind Dir Waves Ship Positions

Vision of The Seas

Operator: Royal Caribbean Cruises Ltd

Last reported at 2019-Feb-23 23:26 UTC. Time now 2019-Feb-23 23:39 UTC.
Position N 29°55' W 089°58'.

Type: Passenger vessel. MMSI: 311321000.

Date/timePositionNaut miles runAvg speedWind from/ knotsBaromVisibWave heightAir tempDewpointWater temp
2019-Feb-23 23:26N 29°55' W 089°58'512.6
2019-Feb-23 23:01N 29°57' W 090°04'0 0.7
2019-Feb-23 22:28N 29°57' W 090°04'0 0.0
2019-Feb-23 21:55N 29°57' W 090°04'0 0.0
2019-Feb-23 21:22N 29°57' W 090°04'0 0.0
2019-Feb-23 20:52N 29°57' W 090°04'0 0.0
2019-Feb-23 20:28N 29°57' W 090°04'0 0.0
2019-Feb-23 19:58N 29°57' W 090°04'0 0.0
2019-Feb-23 19:25N 29°57' W 090°04'0 0.0
2019-Feb-23 18:58N 29°57' W 090°04'0 0.0
2019-Feb-23 18:28N 29°57' W 090°04'0 0.0
2019-Feb-23 17:58N 29°57' W 090°04'0 0.0
2019-Feb-23 17:28N 29°57' W 090°04'0 0.0
2019-Feb-23 16:58N 29°57' W 090°04'0 0.0
2019-Feb-23 16:28N 29°57' W 090°04'0 0.0
2019-Feb-23 15:58N 29°57' W 090°04'0 0.0
2019-Feb-23 15:28N 29°57' W 090°04'0 0.0
2019-Feb-23 14:58N 29°57' W 090°04'0 0.0
2019-Feb-23 14:25N 29°57' W 090°04'0 0.0
2019-Feb-23 13:55N 29°57' W 090°04'0 0.0
2019-Feb-23 13:28N 29°57' W 090°04'0 0.0
2019-Feb-23 12:58N 29°57' W 090°04'0 0.8
2019-Feb-23 12:30N 29°57' W 090°04'5 9.3
2019-Feb-23 12:00N 29°56' W 089°58'5 8.8
2019-Feb-23 11:28N 29°52' W 089°55'4 9.1
2019-Feb-23 10:59N 29°50' W 089°59'611.4
2019-Feb-23 10:29N 29°45' W 090°01'46813.6
2019-Feb-22 00:00N 22°42' W 086°18'19614.0 130 / 181018.110.8 25.023.626.0
2019-Feb-21 10:00N 20°36' W 083°36'12017.1 110 / 151018.110.8 25.020.7
2019-Feb-21 03:00N 19°24' W 081°54'69 4.1 100 / 181018.110.8 25.020.726.0
2019-Feb-20 10:00N 19°12' W 083°06'19419.4 140 / 141017.1 5.4 25.020.7
2019-Feb-20 00:00N 18°54' W 086°30'45 3.0 140 / 191017.110.8 25.022.226.0
2019-Feb-19 09:00N 18°54' W 087°18'6210.4 120 / 201016.110.8 25.020.7
2019-Feb-19 03:00N 19°54' W 087°00'2810.2 120 / 271017.110.8 25.0 27.0
2019-Feb-19 00:14N 20°22' W 087°05'4 9.5
2019-Feb-18 23:47N 20°26' W 087°03'310.2
2019-Feb-18 23:30N 20°28' W 087°02'3 6.2
2019-Feb-18 23:00N 20°29' W 086°59'0 0.2
2019-Feb-18 22:28N 20°29' W 086°59'0 0.0
2019-Feb-18 21:58N 20°29' W 086°59'0 0.0
2019-Feb-18 21:25N 20°29' W 086°59'0 0.0
2019-Feb-18 20:58N 20°29' W 086°59'0 0.0
2019-Feb-18 20:28N 20°29' W 086°59'0 0.0
2019-Feb-18 19:58N 20°29' W 086°59'0 0.0
2019-Feb-18 19:28N 20°29' W 086°59'0 0.0
2019-Feb-18 18:55N 20°29' W 086°59'0 0.0
2019-Feb-18 18:25N 20°29' W 086°59'0 0.0
2019-Feb-18 17:58N 20°29' W 086°59'0 0.0
2019-Feb-18 17:28N 20°29' W 086°59'0 0.0
2019-Feb-18 16:58N 20°29' W 086°59'0 0.0
2019-Feb-18 16:28N 20°29' W 086°59'0 0.0
2019-Feb-18 15:58N 20°29' W 086°59'0 0.0
2019-Feb-18 15:25N 20°29' W 086°59'0 0.0
2019-Feb-18 14:58N 20°29' W 086°59'0 0.0
2019-Feb-18 14:28N 20°29' W 086°59'0 0.0
2019-Feb-18 13:58N 20°29' W 086°59'0 0.0
2019-Feb-18 13:25N 20°29' W 086°59'0 0.0
2019-Feb-18 12:58N 20°29' W 086°59'2 4.7
2019-Feb-18 12:30N 20°31' W 086°59'612.7
2019-Feb-18 12:01N 20°37' W 086°56'19416.1
2019-Feb-18 00:00N 23°48' W 087°30'38316.0 160 / 291013.110.8 24.019.621.0
2019-Feb-17 00:05N 29°46' W 090°01'115.7
2019-Feb-17 00:00N 29°47' W 090°01'713.1
2019-Feb-16 23:30N 29°53' W 089°57'3 5.0
2019-Feb-16 22:59N 29°55' W 089°57'612.6
2019-Feb-16 22:30N 29°57' W 090°03'1 1.9
2019-Feb-16 22:00N 29°57' W 090°04'0 0.0
2019-Feb-16 21:30N 29°57' W 090°04'0 0.0
2019-Feb-16 21:00N 29°57' W 090°04'0 0.0
2019-Feb-16 20:24N 29°57' W 090°04'0 0.0
2019-Feb-16 20:00N 29°57' W 090°04'0 0.0
2019-Feb-16 19:24N 29°57' W 090°04'0 0.0
2019-Feb-16 18:57N 29°57' W 090°04'0 0.0
2019-Feb-16 18:30N 29°57' W 090°04'0 0.0
2019-Feb-16 18:00N 29°57' W 090°04'0 0.0
2019-Feb-16 17:30N 29°57' W 090°04'0 0.0
2019-Feb-16 17:00N 29°57' W 090°04'0 0.0
2019-Feb-16 16:30N 29°57' W 090°04'0 0.0
2019-Feb-16 15:57N 29°57' W 090°04'0 0.0
2019-Feb-16 15:30N 29°57' W 090°04'0 0.0
2019-Feb-16 15:00N 29°57' W 090°04'0 0.0
2019-Feb-16 14:30N 29°57' W 090°04'0 0.0
2019-Feb-16 14:00N 29°57' W 090°04'0 0.0
2019-Feb-16 13:30N 29°57' W 090°04'0 0.0
2019-Feb-16 12:57N 29°57' W 090°04'0 0.0
2019-Feb-16 12:30N 29°57' W 090°04'2 4.1
2019-Feb-16 12:00N 29°57' W 090°01'510.7
2019-Feb-16 11:30N 29°55' W 089°56'3 5.8
2019-Feb-16 11:00N 29°52' W 089°57'5 9.2
2019-Feb-16 10:30N 29°49' W 090°00'510.2
2019-Feb-16 10:00N 29°44' W 089°60'22422.4
2019-Feb-16 00:00N 26°06' W 089°00'20517.1 230 / 131015.110.8 22.015.8
2019-Feb-15 12:00N 25°54' W 085°12'16620.8 150 / 101018.110.8 20.016.9
2019-Feb-15 04:00N 24°18' W 087°42'21511.9 070 / 111020.110.8 22.017.5
2019-Feb-14 10:00N 20°54' W 086°30'6613.3 030 / 181018.110.8 24.019.6
2019-Feb-14 05:00N 19°54' W 087°00'   340 / 171020.110.8 24.022.6

Dump ship's entire track history